sensor_id;sensor_type;location;lat;lon;timestamp;pressure;altitude;pressure_sealevel;temperature
43292;BMP280;28754;47.700;7.924;2023-02-22T00:00:32;91168.03;;;12.18
43292;BMP280;28754;47.700;7.924;2023-02-22T00:03:31;91168.66;;;12.10
43292;BMP280;28754;47.700;7.924;2023-02-22T00:06:20;91165.28;;;12.10
43292;BMP280;28754;47.700;7.924;2023-02-22T00:09:08;91160.16;;;12.10
43292;BMP280;28754;47.700;7.924;2023-02-22T00:11:55;91165.28;;;12.10
43292;BMP280;28754;47.700;7.924;2023-02-22T00:14:44;91167.84;;;12.15
43292;BMP280;28754;47.700;7.924;2023-02-22T00:17:30;91163.72;;;12.14
43292;BMP280;28754;47.700;7.924;2023-02-22T00:20:17;91169.44;;;12.06
43292;BMP280;28754;47.700;7.924;2023-02-22T00:23:15;91160.78;;;12.02
43292;BMP280;28754;47.700;7.924;2023-02-22T00:26:05;91165.34;;;12.05
43292;BMP280;28754;47.700;7.924;2023-02-22T00:28:55;91160.16;;;12.10
43292;BMP280;28754;47.700;7.924;2023-02-22T00:31:44;91163.72;;;12.14
43292;BMP280;28754;47.700;7.924;2023-02-22T00:34:31;91167.28;;;12.18
43292;BMP280;28754;47.700;7.924;2023-02-22T00:37:19;91158.38;;;12.10
43292;BMP280;28754;47.700;7.924;2023-02-22T00:40:11;91155.66;;;11.97
43292;BMP280;28754;47.700;7.924;2023-02-22T00:43:02;91143.97;;;11.86
43292;BMP280;28754;47.700;7.924;2023-02-22T00:45:49;91141.00;;;11.74
43292;BMP280;28754;47.700;7.924;2023-02-22T00:48:37;91160.06;;;11.64
43292;BMP280;28754;47.700;7.924;2023-02-22T00:51:25;91155.44;;;11.61
43292;BMP280;28754;47.700;7.924;2023-02-22T00:54:12;91145.25;;;11.56
43292;BMP280;28754;47.700;7.924;2023-02-22T00:57:00;91155.03;;;11.49
43292;BMP280;28754;47.700;7.924;2023-02-22T00:59:47;91147.09;;;11.45
43292;BMP280;28754;47.700;7.924;2023-02-22T01:02:34;91147.88;;;11.46
43292;BMP280;28754;47.700;7.924;2023-02-22T01:05:25;91139.84;;;11.57
43292;BMP280;28754;47.700;7.924;2023-02-22T01:08:15;91140.63;;;11.58
43292;BMP280;28754;47.700;7.924;2023-02-22T01:11:02;91130.09;;;11.59
43292;BMP280;28754;47.700;7.924;2023-02-22T01:13:49;91135.47;;;11.58
43292;BMP280;28754;47.700;7.924;2023-02-22T01:16:36;91125.22;;;11.58
43292;BMP280;28754;47.700;7.924;2023-02-22T01:19:23;91121.13;;;11.57
43292;BMP280;28754;47.700;7.924;2023-02-22T01:22:10;91120.84;;;11.58
43292;BMP280;28754;47.700;7.924;2023-02-22T01:24:56;91136.00;;;11.55
43292;BMP280;28754;47.700;7.924;2023-02-22T01:27:43;91130.66;;;11.51
43292;BMP280;28754;47.700;7.924;2023-02-22T01:30:33;91126.84;;;11.49
43292;BMP280;28754;47.700;7.924;2023-02-22T01:33:20;91120.72;;;11.45
43292;BMP280;28754;47.700;7.924;2023-02-22T01:36:07;91117.59;;;11.53
43292;BMP280;28754;47.700;7.924;2023-02-22T01:38:56;91117.97;;;11.65
43292;BMP280;28754;47.700;7.924;2023-02-22T01:41:44;91115.59;;;11.73
43292;BMP280;28754;47.700;7.924;2023-02-22T01:44:37;91110.72;;;11.76
43292;BMP280;28754;47.700;7.924;2023-02-22T01:47:24;91108.97;;;11.72
43292;BMP280;28754;47.700;7.924;2023-02-22T01:50:11;91114.56;;;11.74
43292;BMP280;28754;47.700;7.924;2023-02-22T01:53:00;91107.91;;;11.73
43292;BMP280;28754;47.700;7.924;2023-02-22T01:55:48;91103.78;;;11.77
43292;BMP280;28754;47.700;7.924;2023-02-22T01:58:39;91108.03;;;11.86
43292;BMP280;28754;47.700;7.924;2023-02-22T02:01:28;91109.53;;;11.92
43292;BMP280;28754;47.700;7.924;2023-02-22T02:04:20;91113.34;;;11.95
43292;BMP280;28754;47.700;7.924;2023-02-22T02:07:19;91103.31;;;11.98
43292;BMP280;28754;47.700;7.924;2023-02-22T02:10:12;91103.66;;;11.92
43292;BMP280;28754;47.700;7.924;2023-02-22T02:13:01;91103.22;;;11.85
43292;BMP280;28754;47.700;7.924;2023-02-22T02:15:52;91095.22;;;11.86
43292;BMP280;28754;47.700;7.924;2023-02-22T02:18:40;91101.91;;;11.87
43292;BMP280;28754;47.700;7.924;2023-02-22T02:22:43;91101.41;;;11.85
43292;BMP280;28754;47.700;7.924;2023-02-22T02:28:53;91093.97;;;11.84
43292;BMP280;28754;47.700;7.924;2023-02-22T02:38:49;91082.88;;;11.88
43292;BMP280;28754;47.700;7.924;2023-02-22T02:41:46;91081.94;;;11.79
43292;BMP280;28754;47.700;7.924;2023-02-22T02:44:41;91076.00;;;11.84
43292;BMP280;28754;47.700;7.924;2023-02-22T02:47:36;91073.50;;;11.79
43292;BMP280;28754;47.700;7.924;2023-02-22T02:50:34;91070.38;;;11.82
43292;BMP280;28754;47.700;7.924;2023-02-22T02:53:32;91070.94;;;11.79
43292;BMP280;28754;47.700;7.924;2023-02-22T02:56:19;91063.50;;;11.77
43292;BMP280;28754;47.700;7.924;2023-02-22T02:59:28;91059.44;;;11.71
43292;BMP280;28754;47.700;7.924;2023-02-22T03:02:43;91062.13;;;11.62
43292;BMP280;28754;47.700;7.924;2023-02-22T03:09:37;91057.63;;;11.44
43292;BMP280;28754;47.700;7.924;2023-02-22T03:12:41;91054.09;;;11.35
43292;BMP280;28754;47.700;7.924;2023-02-22T03:16:03;91050.53;;;11.36
43292;BMP280;28754;47.700;7.924;2023-02-22T03:22:19;91047.69;;;11.42
43292;BMP280;28754;47.700;7.924;2023-02-22T03:25:20;91045.59;;;11.39
43292;BMP280;28754;47.700;7.924;2023-02-22T03:28:14;91045.91;;;11.33
43292;BMP280;28754;47.700;7.924;2023-02-22T03:31:13;91047.22;;;11.30
43292;BMP280;28754;47.700;7.924;2023-02-22T03:34:21;91051.59;;;11.30
43292;BMP280;28754;47.700;7.924;2023-02-22T03:37:19;91049.28;;;11.29
43292;BMP280;28754;47.700;7.924;2023-02-22T03:40:14;91049.53;;;11.32
43292;BMP280;28754;47.700;7.924;2023-02-22T03:43:15;91055.41;;;11.32
43292;BMP280;28754;47.700;7.924;2023-02-22T03:46:09;91053.09;;;11.31
43292;BMP280;28754;47.700;7.924;2023-02-22T03:49:08;91056.72;;;11.30
43292;BMP280;28754;47.700;7.924;2023-02-22T03:51:58;91060.31;;;11.29
43292;BMP280;28754;47.700;7.924;2023-02-22T03:54:49;91049.28;;;11.29
43292;BMP280;28754;47.700;7.924;2023-02-22T03:57:54;91047.00;;;11.27
43292;BMP280;28754;47.700;7.924;2023-02-22T04:00:42;91050.63;;;11.21
43292;BMP280;28754;47.700;7.924;2023-02-22T04:03:30;91048.13;;;11.16
43292;BMP280;28754;47.700;7.924;2023-02-22T04:06:17;91042.25;;;11.11
43292;BMP280;28754;47.700;7.924;2023-02-22T04:09:04;91035.38;;;11.06
43292;BMP280;28754;47.700;7.924;2023-02-22T04:11:54;91043.16;;;10.92
43292;BMP280;28754;47.700;7.924;2023-02-22T04:14:40;91045.81;;;10.77
43292;BMP280;28754;47.700;7.924;2023-02-22T04:17:27;91047.41;;;10.68
43292;BMP280;28754;47.700;7.924;2023-02-22T04:20:16;91044.34;;;10.66
43292;BMP280;28754;47.700;7.924;2023-02-22T04:23:28;91044.38;;;10.61
43292;BMP280;28754;47.700;7.924;2023-02-22T04:26:16;91044.63;;;10.60
43292;BMP280;28754;47.700;7.924;2023-02-22T04:29:06;91037.28;;;10.48
43292;BMP280;28754;47.700;7.924;2023-02-22T04:31:57;91033.75;;;10.39
43292;BMP280;28754;47.700;7.924;2023-02-22T04:34:44;91033.00;;;10.34
43292;BMP280;28754;47.700;7.924;2023-02-22T04:37:31;91031.97;;;10.35
43292;BMP280;28754;47.700;7.924;2023-02-22T04:40:21;91029.16;;;10.36
43292;BMP280;28754;47.700;7.924;2023-02-22T04:43:08;91038.38;;;10.37
43292;BMP280;28754;47.700;7.924;2023-02-22T04:45:55;91032.47;;;10.42
43292;BMP280;28754;47.700;7.924;2023-02-22T04:48:43;91031.91;;;10.45
43292;BMP280;28754;47.700;7.924;2023-02-22T04:51:30;91026.00;;;10.49
43292;BMP280;28754;47.700;7.924;2023-02-22T04:54:26;91033.34;;;10.61
43292;BMP280;28754;47.700;7.924;2023-02-22T04:57:13;91026.44;;;10.66
43292;BMP280;28754;47.700;7.924;2023-02-22T05:00:00;91024.13;;;10.64
43292;BMP280;28754;47.700;7.924;2023-02-22T05:02:57;91024.88;;;10.70
43292;BMP280;28754;47.700;7.924;2023-02-22T05:05:47;91028.94;;;10.71
43292;BMP280;28754;47.700;7.924;2023-02-22T05:08:34;91026.88;;;10.73
43292;BMP280;28754;47.700;7.924;2023-02-22T05:11:21;91026.13;;;10.72
43292;BMP280;28754;47.700;7.924;2023-02-22T05:14:07;91017.16;;;10.75
43292;BMP280;28754;47.700;7.924;2023-02-22T05:16:58;91027.38;;;10.75
43292;BMP280;28754;47.700;7.924;2023-02-22T05:19:44;91027.19;;;10.71
43292;BMP280;28754;47.700;7.924;2023-02-22T05:22:33;91026.38;;;10.71
43292;BMP280;28754;47.700;7.924;2023-02-22T05:25:19;91025.63;;;10.70
43292;BMP280;28754;47.700;7.924;2023-02-22T05:28:15;91031.50;;;10.71
43292;BMP280;28754;47.700;7.924;2023-02-22T05:31:02;91028.72;;;10.67
43292;BMP280;28754;47.700;7.924;2023-02-22T05:33:48;91015.44;;;10.65
43292;BMP280;28754;47.700;7.924;2023-02-22T05:36:38;91021.06;;;10.67
43292;BMP280;28754;47.700;7.924;2023-02-22T05:39:25;91025.38;;;10.67
43292;BMP280;28754;47.700;7.924;2023-02-22T05:42:12;91003.88;;;10.68
43292;BMP280;28754;47.700;7.924;2023-02-22T05:44:58;91016.94;;;10.66
43292;BMP280;28754;47.700;7.924;2023-02-22T05:47:46;91010.56;;;10.64
43292;BMP280;28754;47.700;7.924;2023-02-22T05:50:33;91019.78;;;10.65
43292;BMP280;28754;47.700;7.924;2023-02-22T05:53:20;91007.00;;;10.65
43292;BMP280;28754;47.700;7.924;2023-02-22T05:56:09;91011.31;;;10.64
43292;BMP280;28754;47.700;7.924;2023-02-22T05:58:58;91011.88;;;10.62
43292;BMP280;28754;47.700;7.924;2023-02-22T06:01:45;91013.66;;;10.61
43292;BMP280;28754;47.700;7.924;2023-02-22T06:04:32;91007.28;;;10.59
43292;BMP280;28754;47.700;7.924;2023-02-22T06:07:18;91007.28;;;10.59
43292;BMP280;28754;47.700;7.924;2023-02-22T06:10:05;91008.56;;;10.56
43292;BMP280;28754;47.700;7.924;2023-02-22T06:12:53;91005.78;;;10.53
43292;BMP280;28754;47.700;7.924;2023-02-22T06:15:39;91009.34;;;10.52
43292;BMP280;28754;47.700;7.924;2023-02-22T06:18:26;91015.78;;;10.49
43292;BMP280;28754;47.700;7.924;2023-02-22T06:21:15;91019.38;;;10.43
43292;BMP280;28754;47.700;7.924;2023-02-22T06:24:02;91025.56;;;10.37
43292;BMP280;28754;47.700;7.924;2023-02-22T06:27:00;91019.94;;;10.30
43292;BMP280;28754;47.700;7.924;2023-02-22T06:29:52;91023.88;;;10.18
43292;BMP280;28754;47.700;7.924;2023-02-22T06:32:39;91030.75;;;10.18
43292;BMP280;28754;47.700;7.924;2023-02-22T06:35:25;91027.94;;;10.19
43292;BMP280;28754;47.700;7.924;2023-02-22T06:38:22;91016.94;;;10.24
43292;BMP280;28754;47.700;7.924;2023-02-22T06:41:11;91030.69;;;10.32
43292;BMP280;28754;47.700;7.924;2023-02-22T06:43:58;91029.66;;;10.38
43292;BMP280;28754;47.700;7.924;2023-02-22T06:46:49;91039.09;;;10.43
43292;BMP280;28754;47.700;7.924;2023-02-22T06:49:39;91029.34;;;10.45
43292;BMP280;28754;47.700;7.924;2023-02-22T06:52:25;91036.00;;;10.51
43292;BMP280;28754;47.700;7.924;2023-02-22T06:55:21;91034.94;;;10.57
43292;BMP280;28754;47.700;7.924;2023-02-22T06:58:09;91036.72;;;10.61
43292;BMP280;28754;47.700;7.924;2023-02-22T07:00:55;91047.41;;;10.68
43292;BMP280;28754;47.700;7.924;2023-02-22T07:03:42;91051.00;;;10.67
43292;BMP280;28754;47.700;7.924;2023-02-22T07:06:29;91038.47;;;10.65
43292;BMP280;28754;47.700;7.924;2023-02-22T07:09:17;91046.63;;;10.72
43292;BMP280;28754;47.700;7.924;2023-02-22T07:12:04;91046.28;;;10.84
43292;BMP280;28754;47.700;7.924;2023-02-22T07:14:54;91036.88;;;11.07
43292;BMP280;28754;47.700;7.924;2023-02-22T07:17:41;91037.13;;;11.44
43292;BMP280;28754;47.700;7.924;2023-02-22T07:20:30;91030.31;;;11.86
43292;BMP280;28754;47.700;7.924;2023-02-22T07:23:17;91054.25;;;12.28
43292;BMP280;28754;47.700;7.924;2023-02-22T07:26:04;91050.84;;;12.55
43292;BMP280;28754;47.700;7.924;2023-02-22T07:28:52;91052.69;;;12.91
43292;BMP280;28754;47.700;7.924;2023-02-22T07:31:42;91055.22;;;13.46
43292;BMP280;28754;47.700;7.924;2023-02-22T07:34:31;91047.00;;;13.44
43292;BMP280;28754;47.700;7.924;2023-02-22T07:37:20;91045.41;;;13.30
43292;BMP280;28754;47.700;7.924;2023-02-22T07:40:08;91041.97;;;13.21
43292;BMP280;28754;47.700;7.924;2023-02-22T07:43:21;91040.41;;;13.38
43292;BMP280;28754;47.700;7.924;2023-02-22T07:46:11;91031.78;;;13.47
43292;BMP280;28754;47.700;7.924;2023-02-22T07:48:58;91032.53;;;13.79
43292;BMP280;28754;47.700;7.924;2023-02-22T07:51:45;91032.19;;;13.99
43292;BMP280;28754;47.700;7.924;2023-02-22T07:54:32;91023.53;;;14.08
43292;BMP280;28754;47.700;7.924;2023-02-22T07:57:22;91032.19;;;13.99
43292;BMP280;28754;47.700;7.924;2023-02-22T08:00:11;91018.63;;;13.94
43292;BMP280;28754;47.700;7.924;2023-02-22T08:03:04;91030.47;;;14.08
43292;BMP280;28754;47.700;7.924;2023-02-22T08:06:05;91026.78;;;14.14
43292;BMP280;28754;47.700;7.924;2023-02-22T08:08:59;91034.38;;;14.45
43292;BMP280;28754;47.700;7.924;2023-02-22T08:11:46;91035.81;;;14.51
43292;BMP280;28754;47.700;7.924;2023-02-22T08:14:32;91034.69;;;14.44
43292;BMP280;28754;47.700;7.924;2023-02-22T08:17:19;91034.84;;;14.47
43292;BMP280;28754;47.700;7.924;2023-02-22T08:20:06;91033.53;;;14.63
43292;BMP280;28754;47.700;7.924;2023-02-22T08:22:55;91037.38;;;14.87
43292;BMP280;28754;47.700;7.924;2023-02-22T08:25:44;91045.28;;;15.04
43292;BMP280;28754;47.700;7.924;2023-02-22T08:28:37;91041.75;;;15.35
43292;BMP280;28754;47.700;7.924;2023-02-22T08:34:42;91032.19;;;16.39
43292;BMP280;28754;47.700;7.924;2023-02-22T08:37:32;91040.00;;;17.45
43292;BMP280;28754;47.700;7.924;2023-02-22T08:40:27;91022.06;;;18.27
43292;BMP280;28754;47.700;7.924;2023-02-22T08:43:19;91031.88;;;18.79
43292;BMP280;28754;47.700;7.924;2023-02-22T08:46:41;91041.22;;;19.08
43292;BMP280;28754;47.700;7.924;2023-02-22T08:49:35;91022.25;;;18.79
43292;BMP280;28754;47.700;7.924;2023-02-22T08:52:22;91034.00;;;18.48
43292;BMP280;28754;47.700;7.924;2023-02-22T08:55:09;91034.75;;;18.03
43292;BMP280;28754;47.700;7.924;2023-02-22T08:57:59;91041.91;;;17.98
43292;BMP280;28754;47.700;7.924;2023-02-22T09:00:46;91033.97;;;18.11
43292;BMP280;28754;47.700;7.924;2023-02-22T09:03:33;91035.72;;;18.36
43292;BMP280;28754;47.700;7.924;2023-02-22T09:06:23;91026.78;;;19.60
43292;BMP280;28754;47.700;7.924;2023-02-22T09:09:10;91034.34;;;20.61
43292;BMP280;28754;47.700;7.924;2023-02-22T09:11:56;91024.97;;;21.54
43292;BMP280;28754;47.700;7.924;2023-02-22T09:14:43;91023.84;;;21.67
43292;BMP280;28754;47.700;7.924;2023-02-22T09:17:32;91034.28;;;22.21
43292;BMP280;28754;47.700;7.924;2023-02-22T09:20:23;91031.63;;;22.79
43292;BMP280;28754;47.700;7.924;2023-02-22T09:23:11;91022.63;;;23.07
43292;BMP280;28754;47.700;7.924;2023-02-22T09:25:58;91031.91;;;23.05
43292;BMP280;28754;47.700;7.924;2023-02-22T09:28:49;91034.41;;;23.32
43292;BMP280;28754;47.700;7.924;2023-02-22T09:31:37;91032.84;;;23.46
43292;BMP280;28754;47.700;7.924;2023-02-22T09:34:25;91034.28;;;23.43
43292;BMP280;28754;47.700;7.924;2023-02-22T09:37:14;91034.38;;;24.00
43292;BMP280;28754;47.700;7.924;2023-02-22T09:40:03;91031.88;;;24.66
43292;BMP280;28754;47.700;7.924;2023-02-22T09:43:39;91030.75;;;25.34
43292;BMP280;28754;47.700;7.924;2023-02-22T09:46:40;91024.22;;;24.77
43292;BMP280;28754;47.700;7.924;2023-02-22T09:49:39;91031.72;;;23.62
43292;BMP280;28754;47.700;7.924;2023-02-22T09:52:38;91033.56;;;23.28
43292;BMP280;28754;47.700;7.924;2023-02-22T09:55:40;91041.22;;;23.36
43292;BMP280;28754;47.700;7.924;2023-02-22T09:58:38;91036.97;;;22.82
43292;BMP280;28754;47.700;7.924;2023-02-22T10:01:43;91043.81;;;22.29
43292;BMP280;28754;47.700;7.924;2023-02-22T10:04:43;91045.25;;;21.61
43292;BMP280;28754;47.700;7.924;2023-02-22T10:07:58;91045.28;;;21.49
43292;BMP280;28754;47.700;7.924;2023-02-22T10:11:34;91050.28;;;21.42
43292;BMP280;28754;47.700;7.924;2023-02-22T10:14:47;91033.56;;;21.31
43292;BMP280;28754;47.700;7.924;2023-02-22T10:27:33;91038.13;;;21.85
43292;BMP280;28754;47.700;7.924;2023-02-22T10:30:32;91034.09;;;22.14
43292;BMP280;28754;47.700;7.924;2023-02-22T10:33:39;91030.06;;;22.59
43292;BMP280;28754;47.700;7.924;2023-02-22T10:36:27;91027.84;;;22.46
43292;BMP280;28754;47.700;7.924;2023-02-22T10:39:32;91025.16;;;22.58
43292;BMP280;28754;47.700;7.924;2023-02-22T10:42:25;91038.00;;;22.93
43292;BMP280;28754;47.700;7.924;2023-02-22T10:45:23;91022.63;;;23.07
43292;BMP280;28754;47.700;7.924;2023-02-22T10:48:19;91030.06;;;22.90
43292;BMP280;28754;47.700;7.924;2023-02-22T10:51:12;91028.06;;;23.33
43292;BMP280;28754;47.700;7.924;2023-02-22T10:57:03;91027.47;;;23.39
43292;BMP280;28754;47.700;7.924;2023-02-22T10:59:50;91024.56;;;23.59
43292;BMP280;28754;47.700;7.924;2023-02-22T11:02:48;91024.00;;;23.50
43292;BMP280;28754;47.700;7.924;2023-02-22T11:05:40;91009.31;;;23.80
43292;BMP280;28754;47.700;7.924;2023-02-22T11:08:29;91002.56;;;23.79
43292;BMP280;28754;47.700;7.924;2023-02-22T11:11:24;91023.97;;;23.16
43292;BMP280;28754;47.700;7.924;2023-02-22T11:14:26;91017.63;;;23.33
43292;BMP280;28754;47.700;7.924;2023-02-22T11:17:28;91019.72;;;23.42
43292;BMP280;28754;47.700;7.924;2023-02-22T11:20:21;91008.66;;;23.15
43292;BMP280;28754;47.700;7.924;2023-02-22T11:23:12;91011.88;;;22.93
43292;BMP280;28754;47.700;7.924;2023-02-22T11:26:18;91019.78;;;22.66
43292;BMP280;28754;47.700;7.924;2023-02-22T11:29:16;91006.72;;;22.20
43292;BMP280;28754;47.700;7.924;2023-02-22T11:32:18;91007.66;;;22.01
43292;BMP280;28754;47.700;7.924;2023-02-22T11:35:30;91004.38;;;22.46
43292;BMP280;28754;47.700;7.924;2023-02-22T11:38:31;90998.66;;;22.71
43292;BMP280;28754;47.700;7.924;2023-02-22T11:41:26;90999.31;;;22.53
43292;BMP280;28754;47.700;7.924;2023-02-22T11:44:27;91005.72;;;22.71
43292;BMP280;28754;47.700;7.924;2023-02-22T11:47:14;90995.53;;;22.96
43292;BMP280;28754;47.700;7.924;2023-02-22T11:50:09;90986.00;;;23.04
43292;BMP280;28754;47.700;7.924;2023-02-22T11:56:44;90988.13;;;22.98
43292;BMP280;28754;47.700;7.924;2023-02-22T12:03:33;90978.25;;;22.15
43292;BMP280;28754;47.700;7.924;2023-02-22T12:06:46;90982.53;;;21.54
43292;BMP280;28754;47.700;7.924;2023-02-22T12:10:07;90981.38;;;21.28
43292;BMP280;28754;47.700;7.924;2023-02-22T12:13:41;90979.50;;;20.65
43292;BMP280;28754;47.700;7.924;2023-02-22T12:20:22;90980.28;;;19.98
43292;BMP280;28754;47.700;7.924;2023-02-22T12:23:42;90982.38;;;19.53
43292;BMP280;28754;47.700;7.924;2023-02-22T12:26:40;90992.72;;;19.00
43292;BMP280;28754;47.700;7.924;2023-02-22T12:29:47;90991.91;;;18.51
43292;BMP280;28754;47.700;7.924;2023-02-22T12:32:41;90992.38;;;18.16
43292;BMP280;28754;47.700;7.924;2023-02-22T12:35:33;90981.31;;;17.82
43292;BMP280;28754;47.700;7.924;2023-02-22T12:38:39;90996.59;;;17.67
43292;BMP280;28754;47.700;7.924;2023-02-22T12:41:41;90998.44;;;17.58
43292;BMP280;28754;47.700;7.924;2023-02-22T12:44:42;90992.94;;;17.43
43292;BMP280;28754;47.700;7.924;2023-02-22T12:47:37;91002.09;;;17.23
43292;BMP280;28754;47.700;7.924;2023-02-22T12:50:30;90987.75;;;17.01
43292;BMP280;28754;47.700;7.924;2023-02-22T12:53:43;90987.44;;;16.77
43292;BMP280;28754;47.700;7.924;2023-02-22T12:56:58;90992.72;;;16.55
43292;BMP280;28754;47.700;7.924;2023-02-22T12:59:55;90992.53;;;16.44
43292;BMP280;28754;47.700;7.924;2023-02-22T13:05:39;90985.50;;;16.27
43292;BMP280;28754;47.700;7.924;2023-02-22T13:11:58;90989.09;;;16.18
43292;BMP280;28754;47.700;7.924;2023-02-22T13:15:17;90992.56;;;16.13
43292;BMP280;28754;47.700;7.924;2023-02-22T13:18:22;90981.72;;;16.03
43292;BMP280;28754;47.700;7.924;2023-02-22T13:21:44;90985.06;;;15.95
43292;BMP280;28754;47.700;7.924;2023-02-22T13:24:51;90982.72;;;15.85
43292;BMP280;28754;47.700;7.924;2023-02-22T13:27:54;90986.75;;;15.70
43292;BMP280;28754;47.700;7.924;2023-02-22T13:42:09;90984.44;;;15.38
43292;BMP280;28754;47.700;7.924;2023-02-22T13:45:15;90982.19;;;15.23
43292;BMP280;28754;47.700;7.924;2023-02-22T13:52:00;90986.25;;;15.03
43292;BMP280;28754;47.700;7.924;2023-02-22T13:54:50;90977.34;;;14.87
43292;BMP280;28754;47.700;7.924;2023-02-22T13:57:47;90973.69;;;14.88
43292;BMP280;28754;47.700;7.924;2023-02-22T14:03:39;90973.81;;;14.83
43292;BMP280;28754;47.700;7.924;2023-02-22T14:06:37;90974.56;;;14.83
43292;BMP280;28754;47.700;7.924;2023-02-22T14:09:51;90975.63;;;14.82
43292;BMP280;28754;47.700;7.924;2023-02-22T14:12:48;90980.59;;;14.79
43292;BMP280;28754;47.700;7.924;2023-02-22T14:15:35;90966.22;;;14.78
43292;BMP280;28754;47.700;7.924;2023-02-22T14:18:23;90966.38;;;14.81
43292;BMP280;28754;47.700;7.924;2023-02-22T14:21:21;90967.16;;;14.82
43292;BMP280;28754;47.700;7.924;2023-02-22T14:24:14;90972.41;;;14.77
43292;BMP280;28754;47.700;7.924;2023-02-22T14:27:03;90982.53;;;14.74
43292;BMP280;28754;47.700;7.924;2023-02-22T14:29:56;90975.84;;;14.73
43292;BMP280;28754;47.700;7.924;2023-02-22T14:32:45;90976.03;;;14.76
43292;BMP280;28754;47.700;7.924;2023-02-22T14:35:42;90970.28;;;14.79
43292;BMP280;28754;47.700;7.924;2023-02-22T14:38:29;90970.56;;;14.77
43292;BMP280;28754;47.700;7.924;2023-02-22T14:41:17;90981.94;;;14.76
43292;BMP280;28754;47.700;7.924;2023-02-22T14:44:05;90978.22;;;14.82
43292;BMP280;28754;47.700;7.924;2023-02-22T14:46:58;90978.03;;;14.79
43292;BMP280;28754;47.700;7.924;2023-02-22T14:49:52;90974.41;;;14.80
43292;BMP280;28754;47.700;7.924;2023-02-22T14:52:43;90981.47;;;14.75
43292;BMP280;28754;47.700;7.924;2023-02-22T14:55:40;90982.47;;;14.65
43292;BMP280;28754;47.700;7.924;2023-02-22T14:58:42;90979.50;;;14.58
43292;BMP280;28754;47.700;7.924;2023-02-22T15:01:35;90981.81;;;14.46
43292;BMP280;28754;47.700;7.924;2023-02-22T15:04:29;90985.06;;;14.39
43292;BMP280;28754;47.700;7.924;2023-02-22T15:07:26;90986.53;;;14.31
43292;BMP280;28754;47.700;7.924;2023-02-22T15:13:22;90986.22;;;14.19
43292;BMP280;28754;47.700;7.924;2023-02-22T15:16:13;90991.09;;;14.21
43292;BMP280;28754;47.700;7.924;2023-02-22T15:19:05;90986.81;;;14.16
43292;BMP280;28754;47.700;7.924;2023-02-22T15:21:57;90985.97;;;14.07
43292;BMP280;28754;47.700;7.924;2023-02-22T15:24:59;90990.78;;;13.96
43292;BMP280;28754;47.700;7.924;2023-02-22T15:27:46;90987.63;;;13.85
43292;BMP280;28754;47.700;7.924;2023-02-22T15:30:36;90991.44;;;13.74
43292;BMP280;28754;47.700;7.924;2023-02-22T15:33:28;90993.41;;;13.64
43292;BMP280;28754;47.700;7.924;2023-02-22T15:36:26;91002.56;;;13.57
43292;BMP280;28754;47.700;7.924;2023-02-22T15:39:28;90990.53;;;13.52
43292;BMP280;28754;47.700;7.924;2023-02-22T15:42:16;91002.16;;;13.50
43292;BMP280;28754;47.700;7.924;2023-02-22T15:45:06;91000.63;;;13.49
43292;BMP280;28754;47.700;7.924;2023-02-22T15:47:54;90994.63;;;13.53
43292;BMP280;28754;47.700;7.924;2023-02-22T15:51:11;90997.97;;;13.54
43292;BMP280;28754;47.700;7.924;2023-02-22T15:54:01;91004.75;;;13.50
43292;BMP280;28754;47.700;7.924;2023-02-22T15:56:52;91002.31;;;13.40
43292;BMP280;28754;47.700;7.924;2023-02-22T15:59:48;91003.25;;;13.31
43292;BMP280;28754;47.700;7.924;2023-02-22T16:02:38;91009.50;;;13.25
43292;BMP280;28754;47.700;7.924;2023-02-22T16:05:39;91001.09;;;13.19
43292;BMP280;28754;47.700;7.924;2023-02-22T16:08:41;91004.50;;;13.15
43292;BMP280;28754;47.700;7.924;2023-02-22T16:11:35;91001.28;;;13.09
43292;BMP280;28754;47.700;7.924;2023-02-22T16:14:43;91005.22;;;13.02
43292;BMP280;28754;47.700;7.924;2023-02-22T16:17:36;90996.84;;;12.97
43292;BMP280;28754;47.700;7.924;2023-02-22T16:23:24;91000.13;;;12.84
43292;BMP280;28754;47.700;7.924;2023-02-22T16:26:33;90995.56;;;12.76
43292;BMP280;28754;47.700;7.924;2023-02-22T16:29:25;90997.13;;;12.77
43292;BMP280;28754;47.700;7.924;2023-02-22T16:32:15;91000.53;;;12.72
43292;BMP280;28754;47.700;7.924;2023-02-22T16:35:02;91000.53;;;12.72
43292;BMP280;28754;47.700;7.924;2023-02-22T16:37:54;91002.38;;;12.67
43292;BMP280;28754;47.700;7.924;2023-02-22T16:40:49;91001.13;;;12.65
43292;BMP280;28754;47.700;7.924;2023-02-22T16:43:42;91003.63;;;12.69
43292;BMP280;28754;47.700;7.924;2023-02-22T16:46:32;90999.81;;;12.67
43292;BMP280;28754;47.700;7.924;2023-02-22T16:49:23;91009.53;;;12.70
43292;BMP280;28754;47.700;7.924;2023-02-22T16:52:13;91011.06;;;12.71
43292;BMP280;28754;47.700;7.924;2023-02-22T16:55:00;91007.50;;;12.67
43292;BMP280;28754;47.700;7.924;2023-02-22T16:57:48;91005.22;;;12.66
43292;BMP280;28754;47.700;7.924;2023-02-22T17:00:40;91007.88;;;12.61
43292;BMP280;28754;47.700;7.924;2023-02-22T17:08:49;91016.50;;;12.46
43292;BMP280;28754;47.700;7.924;2023-02-22T17:17:04;91021.78;;;12.36
43292;BMP280;28754;47.700;7.924;2023-02-22T17:21:13;91014.69;;;12.29
43292;BMP280;28754;47.700;7.924;2023-02-22T17:28:05;91018.84;;;12.25
43292;BMP280;28754;47.700;7.924;2023-02-22T17:31:41;91017.25;;;12.29
43292;BMP280;28754;47.700;7.924;2023-02-22T17:34:41;91019.91;;;12.24
43292;BMP280;28754;47.700;7.924;2023-02-22T17:42:20;91023.94;;;12.30
43292;BMP280;28754;47.700;7.924;2023-02-22T17:49:59;91033.25;;;12.21
43292;BMP280;28754;47.700;7.924;2023-02-22T17:57:14;91040.59;;;12.09
43292;BMP280;28754;47.700;7.924;2023-02-22T18:01:03;91040.78;;;12.12
43292;BMP280;28754;47.700;7.924;2023-02-22T18:03:57;91036.22;;;12.09
43292;BMP280;28754;47.700;7.924;2023-02-22T18:06:58;91039.50;;;12.15
43292;BMP280;28754;47.700;7.924;2023-02-22T18:15:24;91050.88;;;12.09
43292;BMP280;28754;47.700;7.924;2023-02-22T18:23:36;91048.81;;;12.06
43292;BMP280;28754;47.700;7.924;2023-02-22T18:27:16;91043.00;;;12.00
43292;BMP280;28754;47.700;7.924;2023-02-22T18:30:45;91043.25;;;11.99
43292;BMP280;28754;47.700;7.924;2023-02-22T18:34:39;91036.66;;;11.93
43292;BMP280;28754;47.700;7.924;2023-02-22T18:37:26;91037.94;;;11.96
43292;BMP280;28754;47.700;7.924;2023-02-22T18:40:16;91047.97;;;11.92